createdAt,value
2024-02-27T00:13:01.941Z,25.60
2024-02-27T00:28:26.952Z,25.50
2024-02-27T00:43:51.864Z,25.30
2024-02-27T00:59:16.865Z,25.10
2024-02-27T01:14:41.941Z,24.80
2024-02-27T01:30:06.928Z,24.60
2024-02-27T01:45:31.940Z,24.40
2024-02-27T02:00:56.895Z,24.10
2024-02-27T02:16:21.872Z,23.90
2024-02-27T02:31:47.092Z,23.70
2024-02-27T02:47:11.830Z,23.50
2024-02-27T03:02:36.820Z,23.30
2024-02-27T03:18:01.971Z,23.10
2024-02-27T03:33:26.971Z,22.90
2024-02-27T03:48:52.012Z,22.70
2024-02-27T04:04:16.741Z,22.50
2024-02-27T04:19:41.908Z,22.30
2024-02-27T04:35:06.794Z,22.10
2024-02-27T04:50:31.746Z,22.00
2024-02-27T05:05:56.847Z,21.90
2024-02-27T05:21:21.734Z,21.70
2024-02-27T05:36:46.788Z,21.60
2024-02-27T05:52:12.728Z,21.50
2024-02-27T06:07:37.710Z,21.30
2024-02-27T06:23:02.792Z,21.30
2024-02-27T06:38:27.775Z,21.10
2024-02-27T06:53:52.621Z,21.00
2024-02-27T07:09:17.687Z,20.90
2024-02-27T07:24:42.786Z,20.80
2024-02-27T07:40:07.638Z,20.60
2024-02-27T07:55:32.682Z,20.60
2024-02-27T08:10:57.674Z,20.50
2024-02-27T08:26:23.643Z,20.50
2024-02-27T08:41:48.628Z,20.90
2024-02-27T08:57:13.976Z,21.40
2024-02-27T09:12:38.647Z,21.90
2024-02-27T09:28:03.461Z,22.30
2024-02-27T09:43:28.602Z,22.70
2024-02-27T09:58:53.632Z,23.00
2024-02-27T10:14:18.494Z,23.30
2024-02-27T10:29:45.309Z,23.60
2024-02-27T10:45:08.448Z,23.80
2024-02-27T11:00:33.570Z,24.00
2024-02-27T11:15:58.492Z,24.10
2024-02-27T11:31:23.395Z,24.20
2024-02-27T11:46:48.485Z,24.40
2024-02-27T12:02:13.507Z,24.40
2024-02-27T12:17:38.733Z,24.40
2024-02-27T12:33:03.493Z,24.50
2024-02-27T12:48:28.540Z,24.60
2024-02-27T13:03:53.653Z,24.70
2024-02-27T13:19:18.514Z,24.70
2024-02-27T13:34:46.116Z,24.80
2024-02-27T13:50:08.495Z,24.90
2024-02-27T14:05:33.518Z,25.00
2024-02-27T14:20:58.643Z,25.00
2024-02-27T14:36:23.397Z,25.00
2024-02-27T14:51:48.548Z,25.00
2024-02-27T15:07:13.423Z,24.90
2024-02-27T15:22:38.368Z,24.90
2024-02-27T15:38:03.310Z,25.00
2024-02-27T15:53:28.265Z,25.00
2024-02-27T16:08:53.263Z,25.00
2024-02-27T16:24:18.393Z,24.90
2024-02-27T16:39:43.394Z,24.90
2024-02-27T16:55:08.262Z,24.90
2024-02-27T17:10:33.345Z,25.00
2024-02-27T17:26:00.430Z,25.00
2024-02-27T17:41:23.285Z,25.00
2024-02-27T17:56:50.560Z,25.00
2024-02-27T18:12:13.236Z,24.90
2024-02-27T18:27:38.271Z,24.90
2024-02-27T18:43:03.313Z,24.90
2024-02-27T18:58:29.247Z,24.90
2024-02-27T19:13:55.279Z,24.90
2024-02-27T19:29:20.156Z,24.80
2024-02-27T19:44:45.181Z,24.70
2024-02-27T20:00:10.196Z,24.70
2024-02-27T20:15:38.417Z,24.60
2024-02-27T20:31:03.136Z,24.60
2024-02-27T20:46:28.198Z,24.70
2024-02-27T21:01:53.191Z,24.70
2024-02-27T21:17:18.187Z,24.80
2024-02-27T21:32:43.140Z,24.80
2024-02-27T21:48:08.223Z,24.90
2024-02-27T22:03:33.187Z,25.00
2024-02-27T22:18:58.200Z,25.10
2024-02-27T22:34:23.088Z,25.10
2024-02-27T22:49:48.133Z,25.10
2024-02-27T23:05:13.122Z,25.10
2024-02-27T23:20:38.076Z,25.10
2024-02-27T23:36:03.058Z,25.20
2024-02-27T23:51:28.168Z,25.20
